sensor_id;sensor_type;location;lat;lon;timestamp;pressure;altitude;pressure_sealevel;temperature;humidity
39555;BME280;25231;48.746;9.234;2023-04-01T00:00:16;95419.19;;;7.27;100.00
39555;BME280;25231;48.746;9.234;2023-04-01T00:02:42;95406.31;;;7.21;100.00
39555;BME280;25231;48.746;9.234;2023-04-01T00:05:08;95404.03;;;7.24;100.00
39555;BME280;25231;48.746;9.234;2023-04-01T00:07:35;95411.00;;;7.19;100.00
39555;BME280;25231;48.746;9.234;2023-04-01T00:10:02;95409.25;;;7.24;100.00
39555;BME280;25231;48.746;9.234;2023-04-01T00:12:27;95406.22;;;7.32;100.00
39555;BME280;25231;48.746;9.234;2023-04-01T00:14:52;95406.63;;;7.41;100.00
39555;BME280;25231;48.746;9.234;2023-04-01T00:17:18;95403.63;;;7.32;100.00
39555;BME280;25231;48.746;9.234;2023-04-01T00:19:43;95401.66;;;7.23;100.00
39555;BME280;25231;48.746;9.234;2023-04-01T00:22:08;95399.34;;;7.26;100.00
39555;BME280;25231;48.746;9.234;2023-04-01T00:24:37;95398.91;;;7.29;100.00
39555;BME280;25231;48.746;9.234;2023-04-01T00:27:02;95392.88;;;7.29;100.00
39555;BME280;25231;48.746;9.234;2023-04-01T00:29:28;95396.88;;;7.36;100.00
39555;BME280;25231;48.746;9.234;2023-04-01T00:31:56;95402.59;;;7.33;100.00
39555;BME280;25231;48.746;9.234;2023-04-01T00:34:22;95406.44;;;7.31;100.00
39555;BME280;25231;48.746;9.234;2023-04-01T00:36:47;95404.34;;;7.28;100.00
39555;BME280;25231;48.746;9.234;2023-04-01T00:39:12;95405.59;;;7.25;100.00
39555;BME280;25231;48.746;9.234;2023-04-01T00:41:38;95410.88;;;7.30;100.00
39555;BME280;25231;48.746;9.234;2023-04-01T00:44:22;95407.97;;;7.27;100.00
39555;BME280;25231;48.746;9.234;2023-04-01T00:46:48;95403.53;;;7.27;100.00
39555;BME280;25231;48.746;9.234;2023-04-01T00:49:15;95409.84;;;7.31;100.00
39555;BME280;25231;48.746;9.234;2023-04-01T00:51:43;95407.56;;;7.35;100.00
39555;BME280;25231;48.746;9.234;2023-04-01T00:54:11;95409.69;;;7.38;100.00
39555;BME280;25231;48.746;9.234;2023-04-01T00:56:53;95421.13;;;7.37;100.00
39555;BME280;25231;48.746;9.234;2023-04-01T00:59:34;95409.44;;;7.39;100.00
39555;BME280;25231;48.746;9.234;2023-04-01T01:02:01;95409.44;;;7.39;100.00
39555;BME280;25231;48.746;9.234;2023-04-01T01:04:29;95420.75;;;7.45;100.00
39555;BME280;25231;48.746;9.234;2023-04-01T01:09:56;95415.28;;;7.46;100.00
39555;BME280;25231;48.746;9.234;2023-04-01T01:12:51;95401.47;;;7.46;100.00
39555;BME280;25231;48.746;9.234;2023-04-01T01:28:46;95409.69;;;7.38;100.00
39555;BME280;25231;48.746;9.234;2023-04-01T01:31:45;95397.59;;;7.32;100.00
39555;BME280;25231;48.746;9.234;2023-04-01T01:37:03;95406.53;;;7.36;100.00
39555;BME280;25231;48.746;9.234;2023-04-01T01:39:33;95402.09;;;7.36;100.00
39555;BME280;25231;48.746;9.234;2023-04-01T01:42:04;95396.09;;;7.36;100.00
39555;BME280;25231;48.746;9.234;2023-04-01T01:44:32;95398.69;;;7.36;100.00
39555;BME280;25231;48.746;9.234;2023-04-01T01:46:59;95399.91;;;7.28;100.00
39555;BME280;25231;48.746;9.234;2023-04-01T01:49:27;95399.13;;;7.28;100.00
39555;BME280;25231;48.746;9.234;2023-04-01T01:51:55;95411.44;;;7.32;100.00
39555;BME280;25231;48.746;9.234;2023-04-01T01:54:20;95398.41;;;7.32;100.00
39555;BME280;25231;48.746;9.234;2023-04-01T01:56:48;95397.84;;;7.30;100.00
39555;BME280;25231;48.746;9.234;2023-04-01T01:59:15;95393.13;;;7.27;100.00
39555;BME280;25231;48.746;9.234;2023-04-01T02:01:45;95393.63;;;7.24;100.00
39555;BME280;25231;48.746;9.234;2023-04-01T02:04:13;95397.47;;;7.22;100.00
39555;BME280;25231;48.746;9.234;2023-04-01T02:06:43;95379.72;;;7.19;100.00
39555;BME280;25231;48.746;9.234;2023-04-01T02:09:11;95391.63;;;7.15;100.00
39555;BME280;25231;48.746;9.234;2023-04-01T02:11:43;95396.91;;;7.20;100.00
39555;BME280;25231;48.746;9.234;2023-04-01T02:14:19;95397.97;;;7.19;100.00
39555;BME280;25231;48.746;9.234;2023-04-01T02:17:03;95384.78;;;7.08;100.00
39555;BME280;25231;48.746;9.234;2023-04-01T02:19:33;95394.09;;;7.04;100.00
39555;BME280;25231;48.746;9.234;2023-04-01T02:22:03;95396.31;;;7.13;100.00
39555;BME280;25231;48.746;9.234;2023-04-01T02:24:31;95397.34;;;7.12;100.00
39555;BME280;25231;48.746;9.234;2023-04-01T02:26:57;95405.53;;;7.03;100.00
39555;BME280;25231;48.746;9.234;2023-04-01T02:29:24;95406.19;;;6.94;100.00
39555;BME280;25231;48.746;9.234;2023-04-01T02:31:53;95411.75;;;7.02;100.00
39555;BME280;25231;48.746;9.234;2023-04-01T02:34:21;95408.06;;;6.98;100.00
39555;BME280;25231;48.746;9.234;2023-04-01T02:36:48;95411.47;;;6.99;100.00
39555;BME280;25231;48.746;9.234;2023-04-01T02:39:15;95416.38;;;6.95;100.00
39555;BME280;25231;48.746;9.234;2023-04-01T02:41:42;95407.75;;;6.95;100.00
39555;BME280;25231;48.746;9.234;2023-04-01T02:44:09;95416.28;;;6.90;100.00
39555;BME280;25231;48.746;9.234;2023-04-01T02:46:36;95407.69;;;6.90;100.00
39555;BME280;25231;48.746;9.234;2023-04-01T02:49:01;95405.94;;;6.79;100.00
39555;BME280;25231;48.746;9.234;2023-04-01T02:51:27;95404.94;;;6.80;100.00
39555;BME280;25231;48.746;9.234;2023-04-01T02:53:52;95411.63;;;6.76;100.00
39555;BME280;25231;48.746;9.234;2023-04-01T02:56:17;95404.59;;;6.76;100.00
39555;BME280;25231;48.746;9.234;2023-04-01T02:58:44;95405.47;;;6.82;100.00
39555;BME280;25231;48.746;9.234;2023-04-01T03:01:10;95409.34;;;6.79;100.00
39555;BME280;25231;48.746;9.234;2023-04-01T03:03:35;95399.94;;;6.78;100.00
39555;BME280;25231;48.746;9.234;2023-04-01T03:06:12;95403.97;;;6.86;100.00
39555;BME280;25231;48.746;9.234;2023-04-01T03:08:39;95410.03;;;6.75;100.00
39555;BME280;25231;48.746;9.234;2023-04-01T03:11:05;95403.50;;;6.72;100.00
39555;BME280;25231;48.746;9.234;2023-04-01T03:13:31;95398.84;;;6.74;100.00
39555;BME280;25231;48.746;9.234;2023-04-01T03:15:56;95402.94;;;6.70;100.00
39555;BME280;25231;48.746;9.234;2023-04-01T03:18:22;95409.00;;;6.76;100.00
39555;BME280;25231;48.746;9.234;2023-04-01T03:20:47;95414.78;;;6.78;100.00
39555;BME280;25231;48.746;9.234;2023-04-01T03:23:13;95408.56;;;6.79;100.00
39555;BME280;25231;48.746;9.234;2023-04-01T03:25:38;95411.31;;;6.72;100.00
39555;BME280;25231;48.746;9.234;2023-04-01T03:28:03;95406.09;;;6.72;100.00
39555;BME280;25231;48.746;9.234;2023-04-01T03:30:29;95405.88;;;6.74;100.00
39555;BME280;25231;48.746;9.234;2023-04-01T03:32:58;95410.38;;;6.78;100.00
39555;BME280;25231;48.746;9.234;2023-04-01T03:35:26;95416.38;;;6.79;100.00
39555;BME280;25231;48.746;9.234;2023-04-01T03:37:51;95412.25;;;6.83;100.00
39555;BME280;25231;48.746;9.234;2023-04-01T03:40:17;95405.81;;;6.85;100.00
39555;BME280;25231;48.746;9.234;2023-04-01T03:42:42;95399.47;;;6.81;100.00
39555;BME280;25231;48.746;9.234;2023-04-01T03:45:08;95409.97;;;6.86;100.00
39555;BME280;25231;48.746;9.234;2023-04-01T03:47:34;95404.22;;;6.84;100.00
39555;BME280;25231;48.746;9.234;2023-04-01T03:49:59;95409.88;;;6.81;100.00
39555;BME280;25231;48.746;9.234;2023-04-01T03:52:25;95411.38;;;6.77;100.00
39555;BME280;25231;48.746;9.234;2023-04-01T03:54:50;95402.94;;;6.87;100.00
39555;BME280;25231;48.746;9.234;2023-04-01T03:57:15;95408.16;;;6.87;100.00
39555;BME280;25231;48.746;9.234;2023-04-01T03:59:41;95404.06;;;6.91;100.00
39555;BME280;25231;48.746;9.234;2023-04-01T04:02:06;95395.75;;;6.77;100.00
39555;BME280;25231;48.746;9.234;2023-04-01T04:04:31;95395.38;;;6.68;100.00
39555;BME280;25231;48.746;9.234;2023-04-01T04:06:57;95406.09;;;6.72;100.00
39555;BME280;25231;48.746;9.234;2023-04-01T04:09:23;95402.78;;;6.60;100.00
39555;BME280;25231;48.746;9.234;2023-04-01T04:11:49;95393.00;;;6.50;100.00
39555;BME280;25231;48.746;9.234;2023-04-01T04:14:14;95391.09;;;6.46;100.00
39555;BME280;25231;48.746;9.234;2023-04-01T04:16:40;95384.44;;;6.38;100.00
39555;BME280;25231;48.746;9.234;2023-04-01T04:19:05;95387.28;;;6.37;100.00
39555;BME280;25231;48.746;9.234;2023-04-01T04:21:31;95386.41;;;6.31;100.00
39555;BME280;25231;48.746;9.234;2023-04-01T04:23:58;95386.78;;;6.23;100.00
39555;BME280;25231;48.746;9.234;2023-04-01T04:26:24;95396.59;;;6.33;100.00
39555;BME280;25231;48.746;9.234;2023-04-01T04:28:51;95379.44;;;6.20;100.00
39555;BME280;25231;48.746;9.234;2023-04-01T04:31:22;95376.47;;;6.28;100.00
39555;BME280;25231;48.746;9.234;2023-04-01T04:33:47;95375.03;;;6.20;100.00
39555;BME280;25231;48.746;9.234;2023-04-01T04:36:13;95381.03;;;6.21;100.00
39555;BME280;25231;48.746;9.234;2023-04-01T04:38:39;95379.44;;;6.20;100.00
39555;BME280;25231;48.746;9.234;2023-04-01T04:41:11;95382.31;;;6.18;100.00
39555;BME280;25231;48.746;9.234;2023-04-01T04:43:38;95380.63;;;6.12;100.00
39555;BME280;25231;48.746;9.234;2023-04-01T04:46:07;95382.97;;;6.14;100.00
39555;BME280;25231;48.746;9.234;2023-04-01T04:48:33;95388.44;;;6.12;100.00
39555;BME280;25231;48.746;9.234;2023-04-01T04:50:58;95384.09;;;6.18;100.00
39555;BME280;25231;48.746;9.234;2023-04-01T04:53:24;95380.22;;;6.20;100.00
39555;BME280;25231;48.746;9.234;2023-04-01T04:55:50;95378.91;;;6.18;100.00
39555;BME280;25231;48.746;9.234;2023-04-01T04:58:16;95380.72;;;6.17;100.00
39555;BME280;25231;48.746;9.234;2023-04-01T05:00:41;95379.69;;;6.18;100.00
39555;BME280;25231;48.746;9.234;2023-04-01T05:03:07;95381.34;;;6.24;100.00
39555;BME280;25231;48.746;9.234;2023-04-01T05:05:33;95378.28;;;6.28;100.00
39555;BME280;25231;48.746;9.234;2023-04-01T05:07:58;95372.44;;;6.20;100.00
39555;BME280;25231;48.746;9.234;2023-04-01T05:10:24;95374.09;;;6.26;100.00
39555;BME280;25231;48.746;9.234;2023-04-01T05:12:49;95367.16;;;6.32;100.00
39555;BME280;25231;48.746;9.234;2023-04-01T05:15:15;95368.97;;;6.32;100.00
39555;BME280;25231;48.746;9.234;2023-04-01T05:17:40;95360.53;;;6.41;100.00
39555;BME280;25231;48.746;9.234;2023-04-01T05:20:06;95361.19;;;6.48;100.00
39555;BME280;25231;48.746;9.234;2023-04-01T05:22:32;95363.63;;;6.38;100.00
39555;BME280;25231;48.746;9.234;2023-04-01T05:24:57;95356.94;;;6.42;100.00
39555;BME280;25231;48.746;9.234;2023-04-01T05:27:22;95356.13;;;6.42;100.00
39555;BME280;25231;48.746;9.234;2023-04-01T05:29:48;95353.63;;;6.47;100.00
39555;BME280;25231;48.746;9.234;2023-04-01T05:32:13;95348.91;;;6.44;100.00
39555;BME280;25231;48.746;9.234;2023-04-01T05:34:38;95342.81;;;6.55;100.00
39555;BME280;25231;48.746;9.234;2023-04-01T05:37:04;95350.72;;;6.60;100.00
39555;BME280;25231;48.746;9.234;2023-04-01T05:39:29;95347.25;;;6.71;100.00
39555;BME280;25231;48.746;9.234;2023-04-01T05:41:55;95356.41;;;6.74;100.00
39555;BME280;25231;48.746;9.234;2023-04-01T05:44:20;95348.97;;;6.82;100.00
39555;BME280;25231;48.746;9.234;2023-04-01T05:46:45;95349.84;;;6.88;100.00
39555;BME280;25231;48.746;9.234;2023-04-01T05:49:11;95354.88;;;6.94;100.00
39555;BME280;25231;48.746;9.234;2023-04-01T05:51:36;95334.69;;;7.01;100.00
39555;BME280;25231;48.746;9.234;2023-04-01T05:54:04;95349.88;;;7.09;100.00
39555;BME280;25231;48.746;9.234;2023-04-01T05:56:29;95335.91;;;7.16;100.00
39555;BME280;25231;48.746;9.234;2023-04-01T05:58:55;95341.31;;;7.31;100.00
39555;BME280;25231;48.746;9.234;2023-04-01T06:01:20;95345.97;;;7.29;100.00
39555;BME280;25231;48.746;9.234;2023-04-01T06:03:46;95349.28;;;7.41;100.00
39555;BME280;25231;48.746;9.234;2023-04-01T06:06:16;95345.75;;;7.52;100.00
39555;BME280;25231;48.746;9.234;2023-04-01T06:08:46;95337.72;;;7.59;100.00
39555;BME280;25231;48.746;9.234;2023-04-01T06:19:27;95324.00;;;7.90;100.00
39555;BME280;25231;48.746;9.234;2023-04-01T06:22:08;95320.22;;;8.03;100.00
39555;BME280;25231;48.746;9.234;2023-04-01T06:30:53;95324.72;;;8.34;100.00
39555;BME280;25231;48.746;9.234;2023-04-01T06:33:39;95322.03;;;8.29;100.00
39555;BME280;25231;48.746;9.234;2023-04-01T06:46:54;95336.03;;;8.76;100.00
39555;BME280;25231;48.746;9.234;2023-04-01T06:52:24;95345.81;;;8.59;100.00
39555;BME280;25231;48.746;9.234;2023-04-01T06:54:57;95340.53;;;8.54;100.00
39555;BME280;25231;48.746;9.234;2023-04-01T06:57:34;95337.94;;;8.54;100.00
39555;BME280;25231;48.746;9.234;2023-04-01T07:00:04;95346.41;;;8.34;100.00
39555;BME280;25231;48.746;9.234;2023-04-01T07:02:48;95339.88;;;8.37;100.00
39555;BME280;25231;48.746;9.234;2023-04-01T07:05:20;95342.31;;;8.49;100.00
39555;BME280;25231;48.746;9.234;2023-04-01T07:07:50;95348.72;;;8.63;100.00
39555;BME280;25231;48.746;9.234;2023-04-01T07:13:34;95347.16;;;8.62;100.00
39555;BME280;25231;48.746;9.234;2023-04-01T07:19:29;95349.06;;;8.76;100.00
39555;BME280;25231;48.746;9.234;2023-04-01T07:22:12;95341.63;;;8.90;100.00
39555;BME280;25231;48.746;9.234;2023-04-01T07:24:43;95340.78;;;8.85;100.00
39555;BME280;25231;48.746;9.234;2023-04-01T07:27:10;95349.94;;;8.87;100.00
39555;BME280;25231;48.746;9.234;2023-04-01T07:29:35;95355.13;;;8.82;100.00
39555;BME280;25231;48.746;9.234;2023-04-01T07:32:29;95358.75;;;8.76;100.00
39555;BME280;25231;48.746;9.234;2023-04-01T07:40:40;95365.31;;;8.79;100.00
39555;BME280;25231;48.746;9.234;2023-04-01T07:51:24;95362.19;;;8.82;100.00
39555;BME280;25231;48.746;9.234;2023-04-01T07:54:09;95367.19;;;8.88;100.00
39555;BME280;25231;48.746;9.234;2023-04-01T07:56:49;95368.81;;;8.94;100.00
39555;BME280;25231;48.746;9.234;2023-04-01T07:59:39;95366.03;;;9.11;100.00
39555;BME280;25231;48.746;9.234;2023-04-01T08:02:28;95366.63;;;9.18;100.00
39555;BME280;25231;48.746;9.234;2023-04-01T08:07:49;95355.16;;;9.24;100.00
39555;BME280;25231;48.746;9.234;2023-04-01T08:13:24;95357.94;;;9.07;100.00
39555;BME280;25231;48.746;9.234;2023-04-01T08:21:04;95368.16;;;9.14;100.00
39555;BME280;25231;48.746;9.234;2023-04-01T08:23:36;95370.00;;;9.13;100.00
39555;BME280;25231;48.746;9.234;2023-04-01T08:26:08;95363.50;;;9.26;100.00
39555;BME280;25231;48.746;9.234;2023-04-01T08:28:51;95372.47;;;9.35;100.00
39555;BME280;25231;48.746;9.234;2023-04-01T08:31:26;95374.81;;;9.37;100.00
39555;BME280;25231;48.746;9.234;2023-04-01T08:33:55;95369.69;;;9.52;100.00
39555;BME280;25231;48.746;9.234;2023-04-01T08:36:24;95377.03;;;9.60;100.00
39555;BME280;25231;48.746;9.234;2023-04-01T08:39:06;95367.47;;;9.29;100.00
39555;BME280;25231;48.746;9.234;2023-04-01T08:42:23;95374.09;;;9.41;100.00
39555;BME280;25231;48.746;9.234;2023-04-01T08:45:15;95385.72;;;9.18;100.00
39555;BME280;25231;48.746;9.234;2023-04-01T08:47:52;95377.47;;;9.00;100.00
39555;BME280;25231;48.746;9.234;2023-04-01T08:50:30;95387.00;;;8.79;100.00
39555;BME280;25231;48.746;9.234;2023-04-01T08:56:01;95378.81;;;8.70;100.00
39555;BME280;25231;48.746;9.234;2023-04-01T09:04:25;95372.13;;;8.53;100.00
39555;BME280;25231;48.746;9.234;2023-04-01T09:13:02;95370.06;;;8.55;100.00
39555;BME280;25231;48.746;9.234;2023-04-01T09:15:47;95373.06;;;8.68;100.00
39555;BME280;25231;48.746;9.234;2023-04-01T09:21:40;95381.88;;;8.94;100.00
39555;BME280;25231;48.746;9.234;2023-04-01T09:27:18;95371.47;;;9.41;100.00
39555;BME280;25231;48.746;9.234;2023-04-01T09:41:28;95378.91;;;9.70;100.00
39555;BME280;25231;48.746;9.234;2023-04-01T09:49:17;95391.41;;;9.57;100.00
39555;BME280;25231;48.746;9.234;2023-04-01T09:52:20;95392.47;;;9.56;100.00
39555;BME280;25231;48.746;9.234;2023-04-01T10:00:35;95405.00;;;9.54;100.00
39555;BME280;25231;48.746;9.234;2023-04-01T10:08:50;95401.88;;;9.57;100.00
39555;BME280;25231;48.746;9.234;2023-04-01T10:14:37;95419.28;;;9.42;100.00
39555;BME280;25231;48.746;9.234;2023-04-01T10:20:08;95406.53;;;9.45;100.00
39555;BME280;25231;48.746;9.234;2023-04-01T10:23:11;95413.41;;;9.62;100.00
39555;BME280;25231;48.746;9.234;2023-04-01T10:26:01;95407.38;;;9.56;100.00
39555;BME280;25231;48.746;9.234;2023-04-01T10:34:50;95409.41;;;10.01;99.14
39555;BME280;25231;48.746;9.234;2023-04-01T10:37:44;95414.28;;;10.50;97.97
39555;BME280;25231;48.746;9.234;2023-04-01T10:46:21;95418.53;;;10.86;94.50
39555;BME280;25231;48.746;9.234;2023-04-01T10:56:55;95406.94;;;10.41;92.30
39555;BME280;25231;48.746;9.234;2023-04-01T10:59:48;95411.94;;;10.53;91.52
39555;BME280;25231;48.746;9.234;2023-04-01T11:34:04;95424.53;;;11.27;88.15
39555;BME280;25231;48.746;9.234;2023-04-01T11:39:44;95431.34;;;11.38;87.94
39555;BME280;25231;48.746;9.234;2023-04-01T11:42:17;95424.00;;;11.15;84.42
39555;BME280;25231;48.746;9.234;2023-04-01T11:45:29;95438.44;;;11.17;84.58
39555;BME280;25231;48.746;9.234;2023-04-01T11:51:21;95434.16;;;11.72;83.56
39555;BME280;25231;48.746;9.234;2023-04-01T12:01:55;95452.31;;;11.48;84.56
39555;BME280;25231;48.746;9.234;2023-04-01T12:04:40;95445.50;;;11.27;85.75
39555;BME280;25231;48.746;9.234;2023-04-01T12:07:22;95451.81;;;11.16;84.51
39555;BME280;25231;48.746;9.234;2023-04-01T12:12:46;95446.31;;;11.02;86.73
39555;BME280;25231;48.746;9.234;2023-04-01T12:15:23;95454.19;;;11.12;86.34
39555;BME280;25231;48.746;9.234;2023-04-01T12:18:17;95456.00;;;11.17;89.16
39555;BME280;25231;48.746;9.234;2023-04-01T12:21:00;95456.78;;;11.38;87.79
39555;BME280;25231;48.746;9.234;2023-04-01T12:24:01;95452.59;;;11.42;86.32
39555;BME280;25231;48.746;9.234;2023-04-01T12:26:42;95454.44;;;11.31;88.98
39555;BME280;25231;48.746;9.234;2023-04-01T12:38:07;95475.41;;;11.11;87.29
39555;BME280;25231;48.746;9.234;2023-04-01T12:40:51;95451.28;;;11.29;85.12
39555;BME280;25231;48.746;9.234;2023-04-01T12:46:44;95458.34;;;11.59;82.63
39555;BME280;25231;48.746;9.234;2023-04-01T12:49:25;95452.31;;;11.38;83.01
39555;BME280;25231;48.746;9.234;2023-04-01T12:57:53;95463.84;;;11.62;82.42
39555;BME280;25231;48.746;9.234;2023-04-01T13:09:18;95455.47;;;11.76;78.71
39555;BME280;25231;48.746;9.234;2023-04-01T13:12:10;95475.91;;;11.68;79.61
39555;BME280;25231;48.746;9.234;2023-04-01T13:19:51;95468.81;;;11.54;79.92
39555;BME280;25231;48.746;9.234;2023-04-01T13:22:41;95471.72;;;11.32;80.79
39555;BME280;25231;48.746;9.234;2023-04-01T13:28:23;95481.97;;;11.29;81.59
39555;BME280;25231;48.746;9.234;2023-04-01T13:39:49;95489.06;;;11.28;80.95
39555;BME280;25231;48.746;9.234;2023-04-01T13:42:40;95492.72;;;11.57;80.21
39555;BME280;25231;48.746;9.234;2023-04-01T13:45:38;95483.28;;;11.46;79.38
39555;BME280;25231;48.746;9.234;2023-04-01T13:59:15;95502.41;;;11.26;81.46
39555;BME280;25231;48.746;9.234;2023-04-01T14:07:23;95512.66;;;11.23;82.21
39555;BME280;25231;48.746;9.234;2023-04-01T14:10:07;95500.59;;;11.07;82.51
39555;BME280;25231;48.746;9.234;2023-04-01T14:15:23;95512.41;;;11.30;82.25
39555;BME280;25231;48.746;9.234;2023-04-01T14:26:12;95511.06;;;11.07;83.90
39555;BME280;25231;48.746;9.234;2023-04-01T14:42:59;95520.53;;;11.08;85.45
39555;BME280;25231;48.746;9.234;2023-04-01T14:45:44;95518.34;;;10.69;86.31
39555;BME280;25231;48.746;9.234;2023-04-01T14:51:32;95522.50;;;10.60;86.93
39555;BME280;25231;48.746;9.234;2023-04-01T14:56:44;95527.53;;;10.77;88.66
39555;BME280;25231;48.746;9.234;2023-04-01T15:01:51;95529.28;;;10.51;87.12
39555;BME280;25231;48.746;9.234;2023-04-01T15:09:48;95529.88;;;10.68;84.87
39555;BME280;25231;48.746;9.234;2023-04-01T15:12:29;95531.94;;;10.61;84.51
39555;BME280;25231;48.746;9.234;2023-04-01T15:15:09;95534.22;;;10.42;85.09
39555;BME280;25231;48.746;9.234;2023-04-01T15:34:18;95548.41;;;10.47;88.51
39555;BME280;25231;48.746;9.234;2023-04-01T15:40:15;95546.97;;;10.24;88.20
39555;BME280;25231;48.746;9.234;2023-04-01T15:42:56;95555.28;;;10.16;90.13
39555;BME280;25231;48.746;9.234;2023-04-01T15:54:21;95572.25;;;10.08;92.71
39555;BME280;25231;48.746;9.234;2023-04-01T15:57:09;95566.56;;;10.16;91.51
39555;BME280;25231;48.746;9.234;2023-04-01T16:02:49;95579.16;;;10.19;91.50
39555;BME280;25231;48.746;9.234;2023-04-01T16:07:55;95582.38;;;9.94;93.06
39555;BME280;25231;48.746;9.234;2023-04-01T16:10:52;95583.97;;;9.95;93.27
39555;BME280;25231;48.746;9.234;2023-04-01T16:13:42;95579.09;;;9.77;93.11
39555;BME280;25231;48.746;9.234;2023-04-01T16:16:20;95580.53;;;9.95;93.80
39555;BME280;25231;48.746;9.234;2023-04-01T16:19:01;95581.59;;;9.94;93.09
39555;BME280;25231;48.746;9.234;2023-04-01T16:21:49;95578.19;;;9.93;93.93
39555;BME280;25231;48.746;9.234;2023-04-01T16:29:56;95585.34;;;9.71;95.56
39555;BME280;25231;48.746;9.234;2023-04-01T16:37:54;95596.59;;;9.72;96.85
39555;BME280;25231;48.746;9.234;2023-04-01T16:40:42;95601.06;;;9.76;96.72
39555;BME280;25231;48.746;9.234;2023-04-01T16:43:15;95597.94;;;9.74;96.72
39555;BME280;25231;48.746;9.234;2023-04-01T16:56:55;95602.56;;;9.99;97.78
39555;BME280;25231;48.746;9.234;2023-04-01T16:59:40;95609.16;;;10.07;97.58
39555;BME280;25231;48.746;9.234;2023-04-01T17:02:14;95602.59;;;10.04;97.19
39555;BME280;25231;48.746;9.234;2023-04-01T17:04:48;95603.34;;;9.99;96.64
39555;BME280;25231;48.746;9.234;2023-04-01T17:10:29;95606.16;;;9.93;96.24
39555;BME280;25231;48.746;9.234;2023-04-01T17:18:34;95607.47;;;9.90;96.40
39555;BME280;25231;48.746;9.234;2023-04-01T17:21:10;95608.13;;;9.76;97.14
39555;BME280;25231;48.746;9.234;2023-04-01T17:23:53;95618.97;;;9.89;96.80
39555;BME280;25231;48.746;9.234;2023-04-01T17:32:07;95621.13;;;9.66;98.05
39555;BME280;25231;48.746;9.234;2023-04-01T17:40:00;95627.94;;;9.67;99.05
39555;BME280;25231;48.746;9.234;2023-04-01T17:42:46;95635.81;;;9.67;99.64
39555;BME280;25231;48.746;9.234;2023-04-01T17:47:53;95648.13;;;9.71;99.41
39555;BME280;25231;48.746;9.234;2023-04-01T17:50:35;95640.03;;;9.73;99.52
39555;BME280;25231;48.746;9.234;2023-04-01T17:56:18;95643.41;;;9.68;100.00
39555;BME280;25231;48.746;9.234;2023-04-01T18:01:45;95653.88;;;9.41;100.00
39555;BME280;25231;48.746;9.234;2023-04-01T18:04:24;95659.84;;;9.37;100.00
39555;BME280;25231;48.746;9.234;2023-04-01T18:07:10;95657.06;;;9.48;100.00
39555;BME280;25231;48.746;9.234;2023-04-01T18:15:56;95684.53;;;9.46;100.00
39555;BME280;25231;48.746;9.234;2023-04-01T18:20:53;95698.47;;;9.30;100.00
39555;BME280;25231;48.746;9.234;2023-04-01T18:26:28;95710.78;;;9.07;100.00
39555;BME280;25231;48.746;9.234;2023-04-01T18:31:43;95717.88;;;8.90;100.00
39555;BME280;25231;48.746;9.234;2023-04-01T18:37:02;95702.75;;;8.75;100.00
39555;BME280;25231;48.746;9.234;2023-04-01T18:39:40;95721.94;;;8.64;100.00
39555;BME280;25231;48.746;9.234;2023-04-01T18:42:46;95719.03;;;8.61;100.00
39555;BME280;25231;48.746;9.234;2023-04-01T18:45:28;95715.88;;;8.42;100.00
39555;BME280;25231;48.746;9.234;2023-04-01T18:48:08;95724.22;;;8.39;100.00
39555;BME280;25231;48.746;9.234;2023-04-01T18:50:41;95727.91;;;8.43;100.00
39555;BME280;25231;48.746;9.234;2023-04-01T18:55:55;95720.16;;;8.31;100.00
39555;BME280;25231;48.746;9.234;2023-04-01T18:58:45;95721.50;;;8.17;100.00
39555;BME280;25231;48.746;9.234;2023-04-01T19:01:31;95726.88;;;8.11;100.00
39555;BME280;25231;48.746;9.234;2023-04-01T19:04:30;95733.91;;;8.10;100.00
39555;BME280;25231;48.746;9.234;2023-04-01T19:07:01;95718.88;;;8.01;100.00
39555;BME280;25231;48.746;9.234;2023-04-01T19:09:31;95726.38;;;7.97;100.00
39555;BME280;25231;48.746;9.234;2023-04-01T19:14:49;95733.81;;;7.88;100.00
39555;BME280;25231;48.746;9.234;2023-04-01T19:20:12;95733.94;;;7.82;100.00
39555;BME280;25231;48.746;9.234;2023-04-01T19:23:13;95738.00;;;7.89;100.00
39555;BME280;25231;48.746;9.234;2023-04-01T19:25:51;95734.75;;;7.82;100.00
39555;BME280;25231;48.746;9.234;2023-04-01T19:36:38;95746.19;;;7.81;100.00
39555;BME280;25231;48.746;9.234;2023-04-01T19:39:36;95742.25;;;7.79;100.00
39555;BME280;25231;48.746;9.234;2023-04-01T19:42:17;95745.78;;;7.73;100.00
39555;BME280;25231;48.746;9.234;2023-04-01T19:58:37;95753.59;;;8.01;100.00
39555;BME280;25231;48.746;9.234;2023-04-01T20:01:12;95753.03;;;7.99;100.00
39555;BME280;25231;48.746;9.234;2023-04-01T20:04:00;95763.59;;;7.92;100.00
39555;BME280;25231;48.746;9.234;2023-04-01T20:06:41;95771.69;;;7.91;100.00
39555;BME280;25231;48.746;9.234;2023-04-01T20:14:43;95785.59;;;7.97;100.00
39555;BME280;25231;48.746;9.234;2023-04-01T20:20:00;95782.28;;;8.01;100.00
39555;BME280;25231;48.746;9.234;2023-04-01T20:25:15;95791.06;;;7.95;100.00
39555;BME280;25231;48.746;9.234;2023-04-01T20:27:51;95787.34;;;7.91;100.00
39555;BME280;25231;48.746;9.234;2023-04-01T20:33:30;95796.81;;;7.97;100.00
39555;BME280;25231;48.746;9.234;2023-04-01T20:44:26;95797.19;;;7.89;100.00
39555;BME280;25231;48.746;9.234;2023-04-01T20:50:24;95790.50;;;7.93;100.00
39555;BME280;25231;48.746;9.234;2023-04-01T20:58:27;95807.56;;;7.84;100.00
39555;BME280;25231;48.746;9.234;2023-04-01T21:03:45;95812.19;;;7.82;100.00
39555;BME280;25231;48.746;9.234;2023-04-01T21:11:53;95810.16;;;7.84;100.00
39555;BME280;25231;48.746;9.234;2023-04-01T21:22:24;95820.59;;;7.84;100.00
39555;BME280;25231;48.746;9.234;2023-04-01T21:25:35;95826.69;;;7.89;100.00
39555;BME280;25231;48.746;9.234;2023-04-01T21:28:03;95827.72;;;7.88;100.00
39555;BME280;25231;48.746;9.234;2023-04-01T21:33:24;95821.03;;;7.81;100.00
39555;BME280;25231;48.746;9.234;2023-04-01T21:54:37;95838.88;;;7.72;100.00
39555;BME280;25231;48.746;9.234;2023-04-01T22:10:57;95854.44;;;7.67;100.00